Terminal Aerodrome Forecast
Issued by NWS Charleston, WV

Current Version | Previous Version | Graphics & Text | Print | Product List | Glossary On
Versions: 1 2 3 4 5 6 7 8 9 10 11 12 13 14 15 16 17 18 19 20 21 22 23 24
000
FTUS41 KRLX 250907 AAA
TAFBKW
TAF AMD
KBKW 250907Z 2509/2606 23007KT 6SM BR BKN010 BKN015
     FM251300 22009KT 6SM -SHRA BKN011
     FM252300 25010G16KT P6SM SHRA OVC008=

USA.gov is the U.S. government's official web portal to all federal, state and local government web resources and services.